Time,TemperatureF,DewpointF,PressureIn,WindDirection,WindDirectionDegrees,WindSpeedMPH,WindSpeedGustMPH,Humidity,HourlyPrecipIn,Conditions,Clouds,dailyrainin,SoftwareType,DateUTC
2013-01-29 00:02:00,21.6,10.2,29.71,WSW,249,8.0,13.0,61,0.00,,,0.00,meteohub,2013-01-29 07:02:00,
2013-01-29 00:12:00,21.7,11.5,29.72,WSW,255,7.0,11.0,64,0.00,,,0.00,meteohub,2013-01-29 07:12:00,
2013-01-29 00:22:00,22.5,12.2,29.72,WSW,239,7.0,12.0,64,0.00,,,0.00,meteohub,2013-01-29 07:22:00,
2013-01-29 00:32:00,22.5,12.6,29.72,WSW,251,5.0,14.0,65,0.00,,,0.00,meteohub,2013-01-29 07:32:00,
2013-01-29 00:42:00,22.1,12.6,29.72,WSW,254,6.0,12.0,66,0.00,,,0.00,meteohub,2013-01-29 07:42:00,
2013-01-29 00:52:00,22.3,13.3,29.71,WSW,256,7.0,13.0,68,0.00,,,0.00,meteohub,2013-01-29 07:52:00,
2013-01-29 01:02:00,21.7,13.1,29.72,WSW,256,3.0,12.0,69,0.00,,,0.00,meteohub,2013-01-29 08:02:00,
2013-01-29 01:12:00,21.6,12.6,29.72,WSW,255,4.0,8.0,68,0.00,,,0.00,meteohub,2013-01-29 08:12:00,
2013-01-29 01:22:00,21.2,12.9,29.71,WSW,255,3.0,8.0,70,0.00,,,0.00,meteohub,2013-01-29 08:22:00,
2013-01-29 01:32:00,20.8,12.2,29.71,WSW,255,4.0,8.0,69,0.00,,,0.00,meteohub,2013-01-29 08:32:00,
2013-01-29 01:42:00,20.7,11.8,29.71,WSW,255,2.0,9.0,68,0.00,,,0.00,meteohub,2013-01-29 08:42:00,
2013-01-29 01:52:00,20.1,11.3,29.70,WSW,255,5.0,7.0,68,0.00,,,0.00,meteohub,2013-01-29 08:52:00,
2013-01-29 02:02:00,19.9,11.1,29.70,WSW,255,3.0,7.0,68,0.00,,,0.00,meteohub,2013-01-29 09:02:00,
2013-01-29 02:12:00,19.9,11.7,29.70,WSW,255,5.0,6.0,70,0.00,,,0.00,meteohub,2013-01-29 09:12:00,
2013-01-29 02:22:00,20.1,11.8,29.70,WSW,255,4.0,8.0,70,0.00,,,0.00,meteohub,2013-01-29 09:22:00,
2013-01-29 02:32:00,20.1,11.7,29.70,WSW,255,3.0,8.0,69,0.00,,,0.00,meteohub,2013-01-29 09:32:00,
2013-01-29 02:42:00,19.9,9.7,29.71,WSW,255,5.0,8.0,64,0.00,,,0.00,meteohub,2013-01-29 09:42:00,
2013-01-29 02:52:00,19.9,8.6,29.70,WSW,254,7.0,10.0,61,0.00,,,0.00,meteohub,2013-01-29 09:52:00,
2013-01-29 03:02:00,19.9,7.9,29.70,WSW,247,9.0,14.0,59,0.00,,,0.00,meteohub,2013-01-29 10:02:00,
2013-01-29 03:12:00,19.9,7.5,29.69,WSW,251,10.0,20.0,58,0.00,,,0.00,meteohub,2013-01-29 10:12:00,
2013-01-29 03:22:00,19.8,7.0,29.70,WSW,240,6.0,19.0,57,0.00,,,0.00,meteohub,2013-01-29 10:22:00,
2013-01-29 03:32:00,19.6,6.8,29.70,SW,232,13.0,19.0,57,0.00,,,0.00,meteohub,2013-01-29 10:32:00,
2013-01-29 03:42:00,19.4,6.6,29.70,WSW,244,5.0,18.0,57,0.00,,,0.00,meteohub,2013-01-29 10:42:00,
2013-01-29 03:52:00,19.4,6.3,29.70,WSW,252,10.0,17.0,56,0.00,,,0.00,meteohub,2013-01-29 10:52:00,
2013-01-29 04:02:00,19.0,5.9,29.69,WSW,253,11.0,18.0,56,0.00,,,0.00,meteohub,2013-01-29 11:02:00,
2013-01-29 04:12:00,19.2,5.7,29.70,WSW,255,11.0,18.0,55,0.00,,,0.00,meteohub,2013-01-29 11:12:00,
2013-01-29 04:22:00,19.0,5.9,29.70,WSW,241,14.0,18.0,56,0.00,,,0.00,meteohub,2013-01-29 11:22:00,
2013-01-29 04:32:00,18.9,5.7,29.70,WSW,246,10.0,19.0,56,0.00,,,0.00,meteohub,2013-01-29 11:32:00,
2013-01-29 04:42:00,18.7,5.9,29.70,WSW,256,8.0,19.0,57,0.00,,,0.00,meteohub,2013-01-29 11:42:00,
2013-01-29 04:52:00,18.3,5.7,29.70,WSW,255,9.0,19.0,57,0.00,,,0.00,meteohub,2013-01-29 11:52:00,
2013-01-29 05:02:00,18.1,5.9,29.70,WSW,251,9.0,16.0,58,0.00,,,0.00,meteohub,2013-01-29 12:02:00,
2013-01-29 05:12:00,18.0,5.7,29.70,WSW,256,8.0,14.0,58,0.00,,,0.00,meteohub,2013-01-29 12:12:00,
2013-01-29 05:22:00,18.0,5.7,29.70,WSW,249,6.0,16.0,58,0.00,,,0.00,meteohub,2013-01-29 12:22:00,
2013-01-29 05:32:00,17.8,5.9,29.70,West,269,8.0,16.0,59,0.00,,,0.00,meteohub,2013-01-29 12:32:00,
2013-01-29 05:42:00,17.4,5.5,29.70,WNW,287,11.0,15.0,59,0.00,,,0.00,meteohub,2013-01-29 12:42:00,
2013-01-29 05:52:00,17.1,5.5,29.70,West,262,9.0,15.0,60,0.00,,,0.00,meteohub,2013-01-29 12:52:00,
2013-01-29 06:02:00,16.5,5.4,29.71,WNW,290,6.0,14.0,61,0.00,,,0.00,meteohub,2013-01-29 13:02:00,
2013-01-29 06:12:00,15.6,5.0,29.72,WNW,292,3.0,9.0,62,0.00,,,0.00,meteohub,2013-01-29 13:12:00,
2013-01-29 06:22:00,15.3,5.0,29.72,WNW,296,5.0,8.0,63,0.00,,,0.00,meteohub,2013-01-29 13:22:00,
2013-01-29 06:32:00,14.9,4.6,29.73,WNW,296,2.0,6.0,63,0.00,,,0.00,meteohub,2013-01-29 13:32:00,
2013-01-29 06:42:00,14.5,4.3,29.73,WNW,296,2.0,6.0,63,0.00,,,0.00,meteohub,2013-01-29 13:42:00,
2013-01-29 06:52:00,14.4,4.1,29.74,WNW,296,2.0,5.0,63,0.00,,,0.00,meteohub,2013-01-29 13:52:00,
2013-01-29 07:02:00,14.4,4.1,29.74,WNW,301,6.0,7.0,63,0.00,,,0.00,meteohub,2013-01-29 14:02:00,
2013-01-29 07:12:00,14.7,3.4,29.75,NW,307,5.0,8.0,60,0.00,,,0.00,meteohub,2013-01-29 14:12:00,
2013-01-29 07:22:00,15.1,3.0,29.75,West,277,7.0,10.0,58,0.00,,,0.00,meteohub,2013-01-29 14:22:00,
2013-01-29 07:32:00,15.4,2.5,29.75,WNW,282,6.0,16.0,56,0.00,,,0.00,meteohub,2013-01-29 14:32:00,
2013-01-29 07:42:00,14.9,2.5,29.76,West,275,4.0,16.0,57,0.00,,,0.00,meteohub,2013-01-29 14:42:00,
2013-01-29 07:52:00,14.7,2.3,29.77,West,272,3.0,10.0,57,0.00,,,0.00,meteohub,2013-01-29 14:52:00,
2013-01-29 08:02:00,14.5,2.1,29.78,West,272,2.0,9.0,57,0.00,,,0.00,meteohub,2013-01-29 15:02:00,
2013-01-29 08:12:00,14.4,2.7,29.78,WNW,296,2.0,8.0,59,0.00,,,0.00,meteohub,2013-01-29 15:12:00,
2013-01-29 08:22:00,14.0,3.0,29.78,NNE,18,3.0,9.0,61,0.00,,,0.00,meteohub,2013-01-29 15:22:00,
2013-01-29 08:32:00,13.8,1.8,29.79,NNE,18,3.0,6.0,58,0.00,,,0.00,meteohub,2013-01-29 15:32:00,
2013-01-29 08:42:00,14.4,1.9,29.80,NNE,15,5.0,8.0,57,0.00,,,0.00,meteohub,2013-01-29 15:42:00,
2013-01-29 08:52:00,14.5,1.8,29.79,NNE,15,2.0,8.0,56,0.00,,,0.00,meteohub,2013-01-29 15:52:00,
2013-01-29 09:02:00,14.5,1.4,29.79,NNE,15,0.0,8.0,55,0.00,,,0.00,meteohub,2013-01-29 16:02:00,
2013-01-29 09:12:00,15.4,2.5,29.80,NNE,15,1.0,3.0,56,0.00,,,0.00,meteohub,2013-01-29 16:12:00,
2013-01-29 09:22:00,16.0,1.9,29.80,NNE,15,3.0,4.0,53,0.00,,,0.00,meteohub,2013-01-29 16:22:00,
2013-01-29 09:32:00,16.0,1.4,29.80,NNE,22,3.0,7.0,52,0.00,,,0.00,meteohub,2013-01-29 16:32:00,
2013-01-29 09:42:00,16.2,2.1,29.80,NNE,25,3.0,7.0,53,0.00,,,0.00,meteohub,2013-01-29 16:42:00,
2013-01-29 09:52:00,16.5,1.9,29.80,NNE,31,4.0,6.0,52,0.00,,,0.00,meteohub,2013-01-29 16:52:00,
2013-01-29 10:02:00,16.5,1.9,29.80,NE,35,4.0,10.0,52,0.00,,,0.00,meteohub,2013-01-29 17:02:00,
2013-01-29 10:12:00,17.1,2.1,29.80,NE,35,6.0,8.0,51,0.00,,,0.00,meteohub,2013-01-29 17:12:00,
2013-01-29 10:22:00,17.4,1.9,29.80,NE,35,5.0,8.0,50,0.00,,,0.00,meteohub,2013-01-29 17:22:00,
2013-01-29 10:32:00,18.0,2.5,29.80,NNE,33,5.0,9.0,50,0.00,,,0.00,meteohub,2013-01-29 17:32:00,
2013-01-29 10:42:00,18.3,1.9,29.80,NE,37,4.0,9.0,48,0.00,,,0.00,meteohub,2013-01-29 17:42:00,
2013-01-29 10:52:00,18.9,1.9,29.80,NE,41,5.0,9.0,47,0.00,,,0.00,meteohub,2013-01-29 17:52:00,
2013-01-29 11:02:00,19.4,2.8,29.80,NE,42,2.0,9.0,48,0.00,,,0.00,meteohub,2013-01-29 18:02:00,
2013-01-29 11:12:00,20.3,1.9,29.80,NNE,30,4.0,11.0,44,0.00,,,0.00,meteohub,2013-01-29 18:12:00,
2013-01-29 11:22:00,20.8,1.9,29.79,NNE,15,1.0,11.0,43,0.00,,,0.00,meteohub,2013-01-29 18:22:00,
2013-01-29 11:32:00,21.2,1.8,29.79,North,10,8.0,9.0,42,0.00,,,0.00,meteohub,2013-01-29 18:32:00,
2013-01-29 11:42:00,21.0,1.9,29.78,NE,36,8.0,12.0,43,0.00,,,0.00,meteohub,2013-01-29 18:42:00,
2013-01-29 11:52:00,21.0,0.5,29.78,NE,35,1.0,14.0,40,0.00,,,0.00,meteohub,2013-01-29 18:52:00,
2013-01-29 12:02:00,21.6,0.5,29.78,NE,41,7.0,9.0,39,0.00,,,0.00,meteohub,2013-01-29 19:02:00,
2013-01-29 12:12:00,22.5,0.7,29.78,NNE,16,10.0,15.0,38,0.00,,,0.00,meteohub,2013-01-29 19:12:00,
2013-01-29 12:22:00,21.7,0.0,29.78,North,10,8.0,17.0,38,0.00,,,0.00,meteohub,2013-01-29 19:22:00,
2013-01-29 12:32:00,21.6,0.0,29.78,NNE,20,7.0,17.0,38,0.00,,,0.00,meteohub,2013-01-29 19:32:00,
2013-01-29 12:42:00,22.1,-0.2,29.78,NNE,28,12.0,14.0,37,0.00,,,0.00,meteohub,2013-01-29 19:42:00,
2013-01-29 12:52:00,21.4,-3.3,29.78,NNE,22,1.0,12.0,33,0.00,,,0.00,meteohub,2013-01-29 19:52:00,
2013-01-29 13:02:00,21.6,-1.8,29.78,NNE,27,4.0,9.0,35,0.00,,,0.00,meteohub,2013-01-29 20:02:00,
2013-01-29 13:12:00,21.4,-2.6,29.78,SE,125,5.0,8.0,34,0.00,,,0.00,meteohub,2013-01-29 20:12:00,
2013-01-29 13:22:00,21.9,-0.9,29.77,East,96,15.0,16.0,36,0.00,,,0.00,meteohub,2013-01-29 20:22:00,
2013-01-29 13:32:00,21.9,-3.5,29.78,SSE,147,7.0,24.0,32,0.00,,,0.00,meteohub,2013-01-29 20:32:00,
2013-01-29 13:42:00,22.3,-6.0,29.78,NNE,14,9.0,21.0,28,0.00,,,0.00,meteohub,2013-01-29 20:42:00,
2013-01-29 13:52:00,23.4,-5.6,29.79,NNE,32,5.0,16.0,27,0.00,,,0.00,meteohub,2013-01-29 20:52:00,
2013-01-29 14:02:00,22.6,-7.1,29.79,North,0,9.0,14.0,26,0.00,,,0.00,meteohub,2013-01-29 21:02:00,
2013-01-29 14:12:00,22.5,-8.1,29.80,NNW,347,4.0,15.0,25,0.00,,,0.00,meteohub,2013-01-29 21:12:00,
2013-01-29 14:22:00,22.5,-7.2,29.80,North,5,8.0,16.0,26,0.00,,,0.00,meteohub,2013-01-29 21:22:00,
2013-01-29 14:32:00,23.7,-3.3,29.81,WNW,291,7.0,15.0,30,0.00,,,0.00,meteohub,2013-01-29 21:32:00,
2013-01-29 14:42:00,23.9,-3.8,29.81,WNW,303,15.0,15.0,29,0.00,,,0.00,meteohub,2013-01-29 21:42:00,
2013-01-29 14:52:00,23.7,-7.1,29.83,NNW,329,15.0,17.0,25,0.00,,,0.00,meteohub,2013-01-29 21:52:00,
2013-01-29 15:02:00,24.1,-5.8,29.83,NNW,329,8.0,19.0,26,0.00,,,0.00,meteohub,2013-01-29 22:02:00,
2013-01-29 15:12:00,24.4,-4.0,29.84,NW,309,7.0,19.0,28,0.00,,,0.00,meteohub,2013-01-29 22:12:00,
2013-01-29 15:22:00,24.3,-9.2,29.85,NW,313,4.0,23.0,22,0.00,,,0.00,meteohub,2013-01-29 22:22:00,
2013-01-29 15:32:00,23.7,-8.7,29.86,West,259,9.0,14.0,23,0.00,,,0.00,meteohub,2013-01-29 22:32:00,
2013-01-29 15:42:00,22.6,-7.1,29.86,West,281,13.0,15.0,26,0.00,,,0.00,meteohub,2013-01-29 22:42:00,
2013-01-29 15:52:00,22.5,-9.8,29.87,NNW,329,11.0,15.0,23,0.00,,,0.00,meteohub,2013-01-29 22:52:00,
2013-01-29 16:02:00,22.1,-11.0,29.88,NNW,328,8.0,15.0,22,0.00,,,0.00,meteohub,2013-01-29 23:02:00,
2013-01-29 16:12:00,22.3,-8.1,29.89,NW,322,8.0,15.0,25,0.00,,,0.00,meteohub,2013-01-29 23:12:00,
2013-01-29 16:22:00,21.2,-9.2,29.89,West,281,12.0,18.0,25,0.00,,,0.00,meteohub,2013-01-29 23:22:00,
2013-01-29 16:32:00,20.7,-9.6,29.89,West,275,17.0,20.0,25,0.00,,,0.00,meteohub,2013-01-29 23:32:00,
2013-01-29 16:42:00,19.8,-11.2,29.90,West,266,12.0,18.0,24,0.00,,,0.00,meteohub,2013-01-29 23:42:00,
2013-01-29 16:52:00,18.7,-10.5,29.91,West,276,6.0,19.0,26,0.00,,,0.00,meteohub,2013-01-29 23:52:00,
2013-01-29 17:02:00,18.1,-11.0,29.91,West,278,9.0,15.0,26,0.00,,,0.00,meteohub,2013-01-30 00:02:00,
2013-01-29 17:12:00,18.0,-10.5,29.92,WSW,248,8.0,19.0,27,0.00,,,0.00,meteohub,2013-01-30 00:12:00,
2013-01-29 17:22:00,17.6,-9.2,29.94,West,272,8.0,15.0,29,0.00,,,0.00,meteohub,2013-01-30 00:22:00,
2013-01-29 17:32:00,17.2,-8.9,29.94,West,264,6.0,13.0,30,0.00,,,0.00,meteohub,2013-01-30 00:32:00,
2013-01-29 17:42:00,16.9,-7.2,29.95,WSW,238,7.0,13.0,33,0.00,,,0.00,meteohub,2013-01-30 00:42:00,
2013-01-29 17:52:00,16.5,-8.1,29.96,WSW,249,4.0,15.0,32,0.00,,,0.00,meteohub,2013-01-30 00:52:00,
2013-01-29 18:02:00,16.3,-8.3,29.97,WSW,246,3.0,15.0,32,0.00,,,0.00,meteohub,2013-01-30 01:02:00,
2013-01-29 18:12:00,16.2,-8.5,29.97,WSW,251,6.0,11.0,32,0.00,,,0.00,meteohub,2013-01-30 01:12:00,
2013-01-29 18:22:00,16.0,-8.1,29.98,WSW,242,6.0,13.0,33,0.00,,,0.00,meteohub,2013-01-30 01:22:00,
2013-01-29 18:32:00,15.6,-8.3,29.99,SW,232,8.0,15.0,33,0.00,,,0.00,meteohub,2013-01-30 01:32:00,
2013-01-29 18:42:00,15.4,-7.4,30.00,WSW,237,7.0,14.0,35,0.00,,,0.00,meteohub,2013-01-30 01:42:00,
2013-01-29 18:52:00,15.4,-6.7,30.00,WSW,244,6.0,17.0,36,0.00,,,0.00,meteohub,2013-01-30 01:52:00,
2013-01-29 19:02:00,15.3,-5.3,30.01,WSW,251,7.0,14.0,39,0.00,,,0.00,meteohub,2013-01-30 02:02:00,
2013-01-29 19:12:00,15.1,-4.9,30.01,WSW,249,11.0,14.0,40,0.00,,,0.00,meteohub,2013-01-30 02:12:00,
2013-01-29 19:22:00,14.9,-5.1,30.02,WSW,243,9.0,15.0,40,0.00,,,0.00,meteohub,2013-01-30 02:22:00,
2013-01-29 19:32:00,14.7,-5.3,30.03,WSW,255,4.0,14.0,40,0.00,,,0.00,meteohub,2013-01-30 02:32:00,
2013-01-29 19:42:00,14.7,-5.8,30.03,West,270,10.0,14.0,39,0.00,,,0.00,meteohub,2013-01-30 02:42:00,
2013-01-29 19:52:00,14.5,-6.0,30.04,West,266,7.0,15.0,39,0.00,,,0.00,meteohub,2013-01-30 02:52:00,
2013-01-29 20:02:00,14.5,-6.0,30.05,WNW,282,4.0,14.0,39,0.00,,,0.00,meteohub,2013-01-30 03:02:00,
2013-01-29 20:12:00,14.4,-6.2,30.05,WNW,282,1.0,11.0,39,0.00,,,0.00,meteohub,2013-01-30 03:12:00,
2013-01-29 20:22:00,14.2,-6.7,30.06,WNW,282,3.0,5.0,38,0.00,,,0.00,meteohub,2013-01-30 03:22:00,
2013-01-29 20:32:00,14.4,-6.2,30.07,WNW,282,3.0,5.0,39,0.00,,,0.00,meteohub,2013-01-30 03:32:00,
2013-01-29 20:42:00,13.8,-6.5,30.08,WNW,282,6.0,7.0,39,0.00,,,0.00,meteohub,2013-01-30 03:42:00,
2013-01-29 20:52:00,13.6,-5.6,30.08,WNW,286,3.0,8.0,41,0.00,,,0.00,meteohub,2013-01-30 03:52:00,
2013-01-29 21:02:00,13.5,-5.8,30.08,WNW,286,4.0,7.0,41,0.00,,,0.00,meteohub,2013-01-30 04:02:00,
2013-01-29 21:12:00,13.1,-6.2,30.09,WNW,286,4.0,5.0,41,0.00,,,0.00,meteohub,2013-01-30 04:12:00,
2013-01-29 21:22:00,12.7,-6.0,30.09,WNW,286,1.0,4.0,42,0.00,,,0.00,meteohub,2013-01-30 04:22:00,
2013-01-29 21:32:00,12.2,-5.6,30.09,WNW,286,1.0,3.0,44,0.00,,,0.00,meteohub,2013-01-30 04:32:00,
2013-01-29 21:42:00,11.3,-5.1,30.10,WNW,286,3.0,4.0,47,0.00,,,0.00,meteohub,2013-01-30 04:42:00,
2013-01-29 21:52:00,10.8,-5.1,30.10,WNW,286,4.0,4.0,48,0.00,,,0.00,meteohub,2013-01-30 04:52:00,
2013-01-29 22:02:00,10.2,-4.7,30.11,WNW,286,2.0,4.0,50,0.00,,,0.00,meteohub,2013-01-30 05:02:00,
2013-01-29 22:12:00,10.2,-4.4,30.12,WNW,286,3.0,3.0,51,0.00,,,0.00,meteohub,2013-01-30 05:12:00,
2013-01-29 22:22:00,10.2,-4.0,30.12,WNW,286,1.0,5.0,52,0.00,,,0.00,meteohub,2013-01-30 05:22:00,
2013-01-29 22:32:00,10.0,-4.0,30.12,WNW,286,2.0,3.0,52,0.00,,,0.00,meteohub,2013-01-30 05:32:00,
2013-01-29 22:42:00,9.1,-3.8,30.13,WNW,286,0.0,3.0,55,0.00,,,0.00,meteohub,2013-01-30 05:42:00,
2013-01-29 22:52:00,9.1,-3.8,30.13,WNW,286,0.0,2.0,55,0.00,,,0.00,meteohub,2013-01-30 05:52:00,
2013-01-29 23:02:00,8.8,-3.6,30.14,WNW,286,1.0,0.0,56,0.00,,,0.00,meteohub,2013-01-30 06:02:00,
2013-01-29 23:12:00,9.1,-4.2,30.15,WNW,286,0.0,2.0,54,0.00,,,0.00,meteohub,2013-01-30 06:12:00,
2013-01-29 23:22:00,8.4,-4.7,30.15,WNW,286,1.0,3.0,54,0.00,,,0.00,meteohub,2013-01-30 06:22:00,
2013-01-29 23:32:00,8.4,-5.3,30.15,WNW,286,0.0,5.0,53,0.00,,,0.00,meteohub,2013-01-30 06:32:00,
2013-01-29 23:42:00,9.1,-5.8,30.16,WNW,286,0.0,5.0,50,0.00,,,0.00,meteohub,2013-01-30 06:42:00,
2013-01-29 23:52:00,8.6,-7.4,30.16,WNW,286,2.0,3.0,47,0.00,,,0.00,meteohub,2013-01-30 06:52:00,